sensor_id;sensor_type;location;lat;lon;timestamp;pressure;altitude;pressure_sealevel;temperature;humidity
11124;BME280;5616;42.692;23.312;2023-01-25T00:02:14;96252.03;;;3.64;88.40
11124;BME280;5616;42.692;23.312;2023-01-25T00:04:41;96250.94;;;3.32;88.95
11124;BME280;5616;42.692;23.312;2023-01-25T00:07:07;96248.44;;;3.43;91.01
11124;BME280;5616;42.692;23.312;2023-01-25T00:09:34;96255.69;;;3.49;90.76
11124;BME280;5616;42.692;23.312;2023-01-25T00:12:03;96260.78;;;3.49;91.02
11124;BME280;5616;42.692;23.312;2023-01-25T00:14:30;96257.69;;;3.57;90.69
11124;BME280;5616;42.692;23.312;2023-01-25T00:16:57;96261.75;;;3.59;90.62
11124;BME280;5616;42.692;23.312;2023-01-25T00:19:23;96254.16;;;3.47;90.35
11124;BME280;5616;42.692;23.312;2023-01-25T00:21:50;96252.09;;;3.52;91.69
11124;BME280;5616;42.692;23.312;2023-01-25T00:24:17;96249.75;;;3.49;90.92
11124;BME280;5616;42.692;23.312;2023-01-25T00:26:47;96253.69;;;3.42;91.75
11124;BME280;5616;42.692;23.312;2023-01-25T00:29:17;96254.81;;;3.38;91.82
11124;BME280;5616;42.692;23.312;2023-01-25T00:31:49;96247.75;;;3.41;92.25
11124;BME280;5616;42.692;23.312;2023-01-25T00:34:38;96249.53;;;3.52;91.75
11124;BME280;5616;42.692;23.312;2023-01-25T00:37:13;96251.41;;;3.61;91.18
11124;BME280;5616;42.692;23.312;2023-01-25T00:39:40;96252.38;;;3.60;91.72
11124;BME280;5616;42.692;23.312;2023-01-25T00:42:07;96257.47;;;3.60;90.15
11124;BME280;5616;42.692;23.312;2023-01-25T00:44:37;96259.75;;;3.52;89.75
11124;BME280;5616;42.692;23.312;2023-01-25T00:47:04;96259.97;;;3.49;91.01
11124;BME280;5616;42.692;23.312;2023-01-25T00:49:33;96253.56;;;3.43;91.07
11124;BME280;5616;42.692;23.312;2023-01-25T00:52:00;96254.09;;;3.36;90.92
11124;BME280;5616;42.692;23.312;2023-01-25T00:54:27;96256.03;;;3.32;90.67
11124;BME280;5616;42.692;23.312;2023-01-25T00:56:54;96257.19;;;3.52;91.19
11124;BME280;5616;42.692;23.312;2023-01-25T00:59:22;96257.53;;;3.47;89.15
11124;BME280;5616;42.692;23.312;2023-01-25T01:01:52;96260.56;;;3.52;89.28
11124;BME280;5616;42.692;23.312;2023-01-25T01:04:19;96264.94;;;3.50;88.66
11124;BME280;5616;42.692;23.312;2023-01-25T01:06:49;96248.25;;;3.46;88.79
11124;BME280;5616;42.692;23.312;2023-01-25T01:09:17;96253.19;;;3.60;88.33
11124;BME280;5616;42.692;23.312;2023-01-25T01:11:45;96251.19;;;3.53;88.31
11124;BME280;5616;42.692;23.312;2023-01-25T01:14:12;96240.69;;;3.45;88.86
11124;BME280;5616;42.692;23.312;2023-01-25T01:16:40;96253.19;;;3.60;89.80
11124;BME280;5616;42.692;23.312;2023-01-25T01:19:10;96249.00;;;3.59;89.54
11124;BME280;5616;42.692;23.312;2023-01-25T01:21:37;96252.03;;;3.64;89.86
11124;BME280;5616;42.692;23.312;2023-01-25T01:24:04;96239.97;;;3.66;89.69
11124;BME280;5616;42.692;23.312;2023-01-25T01:26:31;96242.25;;;3.58;89.45
11124;BME280;5616;42.692;23.312;2023-01-25T01:28:58;96239.31;;;3.52;90.05
11124;BME280;5616;42.692;23.312;2023-01-25T01:31:25;96234.81;;;3.55;90.36
11124;BME280;5616;42.692;23.312;2023-01-25T01:34:06;96236.09;;;3.61;90.46
11124;BME280;5616;42.692;23.312;2023-01-25T01:36:34;96239.94;;;3.55;90.86
11124;BME280;5616;42.692;23.312;2023-01-25T01:39:01;96233.31;;;3.53;89.87
11124;BME280;5616;42.692;23.312;2023-01-25T01:41:28;96230.91;;;3.39;90.76
11124;BME280;5616;42.692;23.312;2023-01-25T01:43:56;96232.50;;;3.29;91.37
11124;BME280;5616;42.692;23.312;2023-01-25T01:46:27;96233.19;;;3.31;91.07
11124;BME280;5616;42.692;23.312;2023-01-25T01:48:58;96228.16;;;3.42;90.85
11124;BME280;5616;42.692;23.312;2023-01-25T01:51:44;96227.06;;;3.33;90.79
11124;BME280;5616;42.692;23.312;2023-01-25T01:54:21;96223.75;;;3.44;90.58
11124;BME280;5616;42.692;23.312;2023-01-25T01:56:54;96229.34;;;3.25;91.47
11124;BME280;5616;42.692;23.312;2023-01-25T01:59:27;96224.66;;;3.19;90.85
11124;BME280;5616;42.692;23.312;2023-01-25T02:01:55;96231.06;;;3.25;89.77
11124;BME280;5616;42.692;23.312;2023-01-25T02:04:23;96222.84;;;3.08;91.08
11124;BME280;5616;42.692;23.312;2023-01-25T02:06:59;96226.16;;;3.22;90.47
11124;BME280;5616;42.692;23.312;2023-01-25T02:09:30;96224.84;;;3.16;91.75
11124;BME280;5616;42.692;23.312;2023-01-25T02:11:58;96231.88;;;3.25;91.81
11124;BME280;5616;42.692;23.312;2023-01-25T02:14:27;96237.25;;;3.09;91.15
11124;BME280;5616;42.692;23.312;2023-01-25T02:16:54;96226.91;;;3.11;91.55
11124;BME280;5616;42.692;23.312;2023-01-25T02:19:33;96228.31;;;3.28;91.68
11124;BME280;5616;42.692;23.312;2023-01-25T02:22:08;96226.94;;;3.35;90.26
11124;BME280;5616;42.692;23.312;2023-01-25T02:24:38;96228.69;;;3.34;89.65
11124;BME280;5616;42.692;23.312;2023-01-25T02:27:09;96224.00;;;3.28;88.96
11124;BME280;5616;42.692;23.312;2023-01-25T02:29:36;96225.59;;;3.18;88.43
11124;BME280;5616;42.692;23.312;2023-01-25T02:32:05;96217.53;;;3.12;88.95
11124;BME280;5616;42.692;23.312;2023-01-25T02:34:32;96230.00;;;3.03;88.80
11124;BME280;5616;42.692;23.312;2023-01-25T02:37:00;96225.25;;;2.99;89.12
11124;BME280;5616;42.692;23.312;2023-01-25T02:39:28;96213.56;;;2.84;90.24
11124;BME280;5616;42.692;23.312;2023-01-25T02:41:55;96217.16;;;3.05;88.78
11124;BME280;5616;42.692;23.312;2023-01-25T02:44:26;96222.63;;;3.12;88.74
11124;BME280;5616;42.692;23.312;2023-01-25T02:46:55;96218.34;;;3.12;88.64
11124;BME280;5616;42.692;23.312;2023-01-25T02:49:22;96200.13;;;3.05;87.54
11124;BME280;5616;42.692;23.312;2023-01-25T02:51:50;96211.84;;;3.08;88.91
11124;BME280;5616;42.692;23.312;2023-01-25T02:54:20;96222.06;;;3.08;89.48
11124;BME280;5616;42.692;23.312;2023-01-25T02:56:47;96214.72;;;3.03;88.79
11124;BME280;5616;42.692;23.312;2023-01-25T02:59:14;96217.53;;;3.12;88.83
11124;BME280;5616;42.692;23.312;2023-01-25T03:01:48;96220.75;;;2.90;89.33
11124;BME280;5616;42.692;23.312;2023-01-25T03:04:15;96226.66;;;2.54;89.62
11124;BME280;5616;42.692;23.312;2023-01-25T03:06:42;96220.13;;;2.63;90.36
11124;BME280;5616;42.692;23.312;2023-01-25T03:09:10;96227.78;;;2.25;90.98
11124;BME280;5616;42.692;23.312;2023-01-25T03:11:42;96230.63;;;2.45;90.94
11124;BME280;5616;42.692;23.312;2023-01-25T03:14:09;96223.72;;;2.47;90.69
11124;BME280;5616;42.692;23.312;2023-01-25T03:16:36;96230.84;;;2.55;91.27
11124;BME280;5616;42.692;23.312;2023-01-25T03:19:06;96226.44;;;2.57;92.34
11124;BME280;5616;42.692;23.312;2023-01-25T03:21:32;96220.25;;;2.48;91.78
11124;BME280;5616;42.692;23.312;2023-01-25T03:24:00;96218.78;;;2.70;90.68
11124;BME280;5616;42.692;23.312;2023-01-25T03:26:36;96216.63;;;2.76;90.92
11124;BME280;5616;42.692;23.312;2023-01-25T03:29:19;96215.28;;;2.83;91.53
11124;BME280;5616;42.692;23.312;2023-01-25T03:31:47;96216.97;;;3.08;90.63
11124;BME280;5616;42.692;23.312;2023-01-25T03:34:15;96191.91;;;2.89;90.41
11124;BME280;5616;42.692;23.312;2023-01-25T03:36:42;96215.81;;;3.12;90.20
11124;BME280;5616;42.692;23.312;2023-01-25T03:39:09;96211.50;;;2.89;88.71
11124;BME280;5616;42.692;23.312;2023-01-25T03:41:40;96212.94;;;2.80;90.21
11124;BME280;5616;42.692;23.312;2023-01-25T03:44:09;96216.59;;;2.89;89.45
11124;BME280;5616;42.692;23.312;2023-01-25T03:46:37;96217.66;;;3.10;87.37
11124;BME280;5616;42.692;23.312;2023-01-25T03:49:04;96217.78;;;2.96;88.50
11124;BME280;5616;42.692;23.312;2023-01-25T03:51:33;96203.97;;;2.75;89.08
11124;BME280;5616;42.692;23.312;2023-01-25T03:54:01;96210.34;;;2.93;89.92
11124;BME280;5616;42.692;23.312;2023-01-25T03:56:29;96211.13;;;3.06;88.69
11124;BME280;5616;42.692;23.312;2023-01-25T03:59:03;96211.41;;;3.14;87.97
11124;BME280;5616;42.692;23.312;2023-01-25T04:01:31;96206.00;;;3.19;87.28
11124;BME280;5616;42.692;23.312;2023-01-25T04:03:59;96204.22;;;3.19;87.64
11124;BME280;5616;42.692;23.312;2023-01-25T04:06:26;96204.44;;;3.16;87.04
11124;BME280;5616;42.692;23.312;2023-01-25T04:08:54;96202.50;;;3.20;88.51
11124;BME280;5616;42.692;23.312;2023-01-25T04:11:24;96199.94;;;3.20;88.44
11124;BME280;5616;42.692;23.312;2023-01-25T04:13:51;96202.91;;;3.26;87.25
11124;BME280;5616;42.692;23.312;2023-01-25T04:16:20;96202.28;;;3.23;88.29
11124;BME280;5616;42.692;23.312;2023-01-25T04:19:20;96206.97;;;3.29;88.39
11124;BME280;5616;42.692;23.312;2023-01-25T04:21:48;96199.94;;;3.20;88.46
11124;BME280;5616;42.692;23.312;2023-01-25T04:24:18;96196.28;;;3.24;88.36
11124;BME280;5616;42.692;23.312;2023-01-25T04:26:44;96196.97;;;3.26;87.72
11124;BME280;5616;42.692;23.312;2023-01-25T04:29:11;96197.34;;;3.32;89.41
11124;BME280;5616;42.692;23.312;2023-01-25T04:31:38;96193.66;;;3.13;88.31
11124;BME280;5616;42.692;23.312;2023-01-25T04:34:05;96197.13;;;3.12;89.73
11124;BME280;5616;42.692;23.312;2023-01-25T04:36:32;96202.59;;;2.94;89.83
11124;BME280;5616;42.692;23.312;2023-01-25T04:38:59;96202.28;;;2.99;89.99
11124;BME280;5616;42.692;23.312;2023-01-25T04:41:27;96208.47;;;3.07;91.13
11124;BME280;5616;42.692;23.312;2023-01-25T04:43:56;96209.94;;;2.99;90.48
11124;BME280;5616;42.692;23.312;2023-01-25T04:46:23;96214.13;;;3.00;89.62
11124;BME280;5616;42.692;23.312;2023-01-25T04:48:52;96208.28;;;3.11;89.16
11124;BME280;5616;42.692;23.312;2023-01-25T04:51:19;96203.25;;;3.09;90.03
11124;BME280;5616;42.692;23.312;2023-01-25T04:53:46;96211.81;;;3.21;89.65
11124;BME280;5616;42.692;23.312;2023-01-25T04:56:13;96212.66;;;3.32;90.92
11124;BME280;5616;42.692;23.312;2023-01-25T04:58:50;96204.44;;;3.16;91.41
11124;BME280;5616;42.692;23.312;2023-01-25T05:01:17;96205.47;;;3.14;91.58
11124;BME280;5616;42.692;23.312;2023-01-25T05:03:44;96210.59;;;3.14;91.37
11124;BME280;5616;42.692;23.312;2023-01-25T05:06:22;96212.06;;;3.29;89.86
11124;BME280;5616;42.692;23.312;2023-01-25T05:08:49;96208.09;;;3.25;88.30
11124;BME280;5616;42.692;23.312;2023-01-25T05:11:16;96204.72;;;3.24;89.16
11124;BME280;5616;42.692;23.312;2023-01-25T05:14:07;96207.66;;;3.07;88.24
11124;BME280;5616;42.692;23.312;2023-01-25T05:16:34;96207.34;;;3.12;89.58
11124;BME280;5616;42.692;23.312;2023-01-25T05:19:01;96204.69;;;3.13;88.30
11124;BME280;5616;42.692;23.312;2023-01-25T05:21:35;96205.09;;;3.07;88.42
11124;BME280;5616;42.692;23.312;2023-01-25T05:24:19;96197.13;;;3.12;89.39
11124;BME280;5616;42.692;23.312;2023-01-25T05:26:47;96192.78;;;3.01;90.27
11124;BME280;5616;42.692;23.312;2023-01-25T05:29:30;96194.06;;;2.83;90.87
11124;BME280;5616;42.692;23.312;2023-01-25T05:32:05;96206.19;;;2.92;90.90
11124;BME280;5616;42.692;23.312;2023-01-25T05:34:33;96197.72;;;2.91;91.09
11124;BME280;5616;42.692;23.312;2023-01-25T05:37:00;96201.38;;;3.00;90.75
11124;BME280;5616;42.692;23.312;2023-01-25T05:39:27;96206.47;;;3.00;89.34
11124;BME280;5616;42.692;23.312;2023-01-25T05:41:54;96198.38;;;3.06;91.15
11124;BME280;5616;42.692;23.312;2023-01-25T05:44:22;96201.25;;;3.01;89.37
11124;BME280;5616;42.692;23.312;2023-01-25T05:46:51;96204.69;;;3.13;88.42
11124;BME280;5616;42.692;23.312;2023-01-25T05:49:18;96214.13;;;3.24;89.58
11124;BME280;5616;42.692;23.312;2023-01-25T05:51:45;96205.88;;;3.20;88.38
11124;BME280;5616;42.692;23.312;2023-01-25T05:54:14;96210.16;;;3.20;89.43
11124;BME280;5616;42.692;23.312;2023-01-25T05:56:48;96215.69;;;3.14;89.03
11124;BME280;5616;42.692;23.312;2023-01-25T05:59:16;96213.88;;;3.16;87.24
11124;BME280;5616;42.692;23.312;2023-01-25T06:01:43;96216.72;;;3.11;88.93
11124;BME280;5616;42.692;23.312;2023-01-25T06:04:12;96209.31;;;3.08;87.84
11124;BME280;5616;42.692;23.312;2023-01-25T06:06:39;96212.72;;;3.20;87.90
11124;BME280;5616;42.692;23.312;2023-01-25T06:09:06;96215.88;;;3.23;87.68
11124;BME280;5616;42.692;23.312;2023-01-25T06:11:33;96208.69;;;3.04;89.09
11124;BME280;5616;42.692;23.312;2023-01-25T06:14:02;96217.31;;;2.91;89.32
11124;BME280;5616;42.692;23.312;2023-01-25T06:16:30;96218.47;;;3.11;88.51
11124;BME280;5616;42.692;23.312;2023-01-25T06:19:05;96221.88;;;3.22;88.90
11124;BME280;5616;42.692;23.312;2023-01-25T06:21:34;96218.75;;;3.19;89.76
11124;BME280;5616;42.692;23.312;2023-01-25T06:24:01;96218.50;;;3.22;88.21
11124;BME280;5616;42.692;23.312;2023-01-25T06:26:28;96222.44;;;3.15;88.83
11124;BME280;5616;42.692;23.312;2023-01-25T06:28:55;96219.34;;;3.22;87.54
11124;BME280;5616;42.692;23.312;2023-01-25T06:31:22;96221.41;;;3.17;87.68
11124;BME280;5616;42.692;23.312;2023-01-25T06:33:50;96218.22;;;3.26;88.41
11124;BME280;5616;42.692;23.312;2023-01-25T06:36:20;96218.47;;;4.04;97.32
11124;BME280;5616;42.692;23.312;2023-01-25T06:38:49;96220.16;;;3.46;89.88
11124;BME280;5616;42.692;23.312;2023-01-25T06:41:17;96222.38;;;3.51;88.41
11124;BME280;5616;42.692;23.312;2023-01-25T06:43:44;96214.44;;;3.43;88.62
11124;BME280;5616;42.692;23.312;2023-01-25T06:46:12;96210.44;;;3.51;89.05
11124;BME280;5616;42.692;23.312;2023-01-25T06:48:39;96194.47;;;4.17;91.58
11124;BME280;5616;42.692;23.312;2023-01-25T06:51:10;96216.88;;;4.03;85.91
11124;BME280;5616;42.692;23.312;2023-01-25T06:53:39;96219.97;;;3.95;85.11
11124;BME280;5616;42.692;23.312;2023-01-25T06:56:09;96220.22;;;3.92;84.07
11124;BME280;5616;42.692;23.312;2023-01-25T06:58:37;96227.72;;;3.83;83.52
11124;BME280;5616;42.692;23.312;2023-01-25T07:01:05;96218.44;;;3.82;83.50
11124;BME280;5616;42.692;23.312;2023-01-25T07:03:33;96223.84;;;3.77;83.06
11124;BME280;5616;42.692;23.312;2023-01-25T07:06:01;96227.09;;;3.68;84.34
11124;BME280;5616;42.692;23.312;2023-01-25T07:08:29;96223.25;;;3.62;84.71
11124;BME280;5616;42.692;23.312;2023-01-25T07:10:58;96214.97;;;3.59;85.06
11124;BME280;5616;42.692;23.312;2023-01-25T07:13:28;96218.00;;;3.29;85.13
11124;BME280;5616;42.692;23.312;2023-01-25T07:15:56;96211.75;;;3.33;86.19
11124;BME280;5616;42.692;23.312;2023-01-25T07:18:23;96215.75;;;3.25;87.47
11124;BME280;5616;42.692;23.312;2023-01-25T07:20:51;96216.34;;;3.28;87.93
11124;BME280;5616;42.692;23.312;2023-01-25T07:23:18;96219.19;;;3.36;85.64
11124;BME280;5616;42.692;23.312;2023-01-25T07:25:46;96217.19;;;3.29;86.10
11124;BME280;5616;42.692;23.312;2023-01-25T07:28:13;96223.13;;;3.40;86.22
11124;BME280;5616;42.692;23.312;2023-01-25T07:30:42;96223.63;;;3.45;86.46
11124;BME280;5616;42.692;23.312;2023-01-25T07:33:09;96227.38;;;3.52;85.68
11124;BME280;5616;42.692;23.312;2023-01-25T07:35:36;96235.59;;;3.45;85.11
11124;BME280;5616;42.692;23.312;2023-01-25T07:38:03;96224.78;;;3.41;85.82
11124;BME280;5616;42.692;23.312;2023-01-25T07:40:30;96227.88;;;3.57;85.31
11124;BME280;5616;42.692;23.312;2023-01-25T07:42:57;96240.16;;;3.63;84.63
11124;BME280;5616;42.692;23.312;2023-01-25T07:45:25;96237.63;;;3.40;84.36
11124;BME280;5616;42.692;23.312;2023-01-25T07:47:56;96241.75;;;3.53;84.29
11124;BME280;5616;42.692;23.312;2023-01-25T07:50:24;96238.09;;;3.57;84.20
11124;BME280;5616;42.692;23.312;2023-01-25T07:52:51;96239.13;;;3.55;84.45
11124;BME280;5616;42.692;23.312;2023-01-25T07:55:18;96234.00;;;3.55;84.92
11124;BME280;5616;42.692;23.312;2023-01-25T07:57:45;96239.88;;;3.68;84.23
11124;BME280;5616;42.692;23.312;2023-01-25T08:00:13;96245.03;;;3.55;83.91
11124;BME280;5616;42.692;23.312;2023-01-25T08:02:40;96236.00;;;3.62;83.12
11124;BME280;5616;42.692;23.312;2023-01-25T08:05:08;96239.81;;;3.57;83.10
11124;BME280;5616;42.692;23.312;2023-01-25T08:07:35;96233.81;;;3.34;83.60
11124;BME280;5616;42.692;23.312;2023-01-25T08:10:03;96229.66;;;3.44;84.17
11124;BME280;5616;42.692;23.312;2023-01-25T08:12:31;96234.31;;;3.50;83.77
11124;BME280;5616;42.692;23.312;2023-01-25T08:14:59;96235.19;;;3.38;83.59
11124;BME280;5616;42.692;23.312;2023-01-25T08:17:26;96230.75;;;3.29;83.81
11124;BME280;5616;42.692;23.312;2023-01-25T08:19:56;96216.28;;;3.17;84.44
11124;BME280;5616;42.692;23.312;2023-01-25T08:22:24;96227.75;;;3.12;85.57
11124;BME280;5616;42.692;23.312;2023-01-25T08:24:51;96224.63;;;3.08;84.81
11124;BME280;5616;42.692;23.312;2023-01-25T08:27:17;96220.25;;;2.97;87.17
11124;BME280;5616;42.692;23.312;2023-01-25T08:29:44;96228.13;;;2.94;87.20
11124;BME280;5616;42.692;23.312;2023-01-25T08:32:12;96219.25;;;2.87;85.78
11124;BME280;5616;42.692;23.312;2023-01-25T08:34:38;96227.28;;;2.94;85.66
11124;BME280;5616;42.692;23.312;2023-01-25T08:37:05;96227.03;;;3.09;86.59
11124;BME280;5616;42.692;23.312;2023-01-25T08:39:33;96224.06;;;3.16;84.86
11124;BME280;5616;42.692;23.312;2023-01-25T08:42:00;96231.53;;;3.06;87.31
11124;BME280;5616;42.692;23.312;2023-01-25T08:44:27;96216.97;;;3.08;86.39
11124;BME280;5616;42.692;23.312;2023-01-25T08:46:54;96219.38;;;3.09;86.97
11124;BME280;5616;42.692;23.312;2023-01-25T08:49:21;96221.19;;;3.20;87.28
11124;BME280;5616;42.692;23.312;2023-01-25T08:51:47;96220.75;;;3.26;86.24
11124;BME280;5616;42.692;23.312;2023-01-25T08:54:14;96218.22;;;3.26;86.40
11124;BME280;5616;42.692;23.312;2023-01-25T08:56:43;96216.34;;;3.28;86.31
11124;BME280;5616;42.692;23.312;2023-01-25T08:59:10;96220.41;;;3.07;87.79
11124;BME280;5616;42.692;23.312;2023-01-25T09:01:37;96222.38;;;3.27;86.12
11124;BME280;5616;42.692;23.312;2023-01-25T09:04:04;96222.38;;;3.27;86.84
11124;BME280;5616;42.692;23.312;2023-01-25T09:06:31;96215.81;;;3.36;87.37
11124;BME280;5616;42.692;23.312;2023-01-25T09:08:58;96220.19;;;3.57;86.05
11124;BME280;5616;42.692;23.312;2023-01-25T09:11:25;96217.44;;;3.71;85.58
11124;BME280;5616;42.692;23.312;2023-01-25T09:13:53;96220.00;;;3.71;86.98
11124;BME280;5616;42.692;23.312;2023-01-25T09:16:22;96221.66;;;3.72;86.49
11124;BME280;5616;42.692;23.312;2023-01-25T09:18:53;96211.53;;;3.36;86.10
11124;BME280;5616;42.692;23.312;2023-01-25T09:21:20;96209.66;;;3.62;86.22
11124;BME280;5616;42.692;23.312;2023-01-25T09:23:48;96207.34;;;3.70;86.84
11124;BME280;5616;42.692;23.312;2023-01-25T09:26:16;96203.44;;;3.77;86.77
11124;BME280;5616;42.692;23.312;2023-01-25T09:28:46;96207.22;;;3.60;86.85
11124;BME280;5616;42.692;23.312;2023-01-25T09:31:15;96203.06;;;3.70;85.58
11124;BME280;5616;42.692;23.312;2023-01-25T09:34:03;96193.50;;;3.61;85.86
11124;BME280;5616;42.692;23.312;2023-01-25T09:36:30;96190.94;;;3.61;86.72
11124;BME280;5616;42.692;23.312;2023-01-25T09:38:57;96184.19;;;3.49;86.49
11124;BME280;5616;42.692;23.312;2023-01-25T09:44:26;96183.47;;;3.13;87.52
11124;BME280;5616;42.692;23.312;2023-01-25T09:46:58;96174.81;;;3.26;88.51
11124;BME280;5616;42.692;23.312;2023-01-25T09:49:39;96175.56;;;3.39;89.40
11124;BME280;5616;42.692;23.312;2023-01-25T09:52:35;96171.22;;;3.52;87.60
11124;BME280;5616;42.692;23.312;2023-01-25T09:55:12;96162.81;;;3.50;86.17
11124;BME280;5616;42.692;23.312;2023-01-25T09:57:41;96166.94;;;3.53;86.74
11124;BME280;5616;42.692;23.312;2023-01-25T10:00:14;96156.44;;;3.45;86.57
11124;BME280;5616;42.692;23.312;2023-01-25T10:02:48;96150.31;;;3.47;86.78
11124;BME280;5616;42.692;23.312;2023-01-25T10:05:21;96143.50;;;3.70;87.90
11124;BME280;5616;42.692;23.312;2023-01-25T10:07:56;96138.69;;;3.89;87.51
11124;BME280;5616;42.692;23.312;2023-01-25T10:10:29;96130.88;;;3.91;85.84
11124;BME280;5616;42.692;23.312;2023-01-25T10:12:58;96137.88;;;4.00;84.30
11124;BME280;5616;42.692;23.312;2023-01-25T10:15:29;96126.00;;;3.88;84.87
11124;BME280;5616;42.692;23.312;2023-01-25T10:18:02;96114.06;;;3.99;85.58
11124;BME280;5616;42.692;23.312;2023-01-25T10:20:36;96120.22;;;3.97;85.68
11124;BME280;5616;42.692;23.312;2023-01-25T10:23:30;96106.50;;;4.20;83.87
11124;BME280;5616;42.692;23.312;2023-01-25T10:26:00;96108.84;;;4.23;81.86
11124;BME280;5616;42.692;23.312;2023-01-25T10:28:38;96102.53;;;4.27;81.31
11124;BME280;5616;42.692;23.312;2023-01-25T10:31:16;96109.53;;;4.25;81.07
11124;BME280;5616;42.692;23.312;2023-01-25T10:33:46;96107.66;;;4.27;80.17
11124;BME280;5616;42.692;23.312;2023-01-25T10:36:15;96101.50;;;4.29;79.49
11124;BME280;5616;42.692;23.312;2023-01-25T10:38:43;96095.69;;;4.27;79.68
11124;BME280;5616;42.692;23.312;2023-01-25T10:41:15;96095.69;;;4.39;79.95
11124;BME280;5616;42.692;23.312;2023-01-25T10:43:44;96085.69;;;4.24;79.92
11124;BME280;5616;42.692;23.312;2023-01-25T10:46:17;96086.06;;;4.31;80.17
11124;BME280;5616;42.692;23.312;2023-01-25T10:48:46;96083.13;;;4.58;79.64
11124;BME280;5616;42.692;23.312;2023-01-25T10:51:28;96081.84;;;4.52;77.98
11124;BME280;5616;42.692;23.312;2023-01-25T10:53:58;96076.19;;;4.26;78.83
11124;BME280;5616;42.692;23.312;2023-01-25T10:56:26;96070.94;;;4.39;79.75
11124;BME280;5616;42.692;23.312;2023-01-25T10:59:05;96069.44;;;4.48;79.60
11124;BME280;5616;42.692;23.312;2023-01-25T11:01:34;96061.66;;;4.27;80.34
11124;BME280;5616;42.692;23.312;2023-01-25T11:04:21;96061.53;;;4.28;80.85
11124;BME280;5616;42.692;23.312;2023-01-25T11:06:49;96058.34;;;4.58;79.82
11124;BME280;5616;42.692;23.312;2023-01-25T11:09:32;96055.59;;;4.50;77.92
11124;BME280;5616;42.692;23.312;2023-01-25T11:12:00;96059.25;;;4.68;80.21
11124;BME280;5616;42.692;23.312;2023-01-25T11:14:28;96052.78;;;4.85;79.07
11124;BME280;5616;42.692;23.312;2023-01-25T11:16:57;96049.16;;;4.87;77.07
11124;BME280;5616;42.692;23.312;2023-01-25T11:19:30;96043.75;;;5.02;77.87
11124;BME280;5616;42.692;23.312;2023-01-25T11:21:58;96044.69;;;5.01;76.50
11124;BME280;5616;42.692;23.312;2023-01-25T11:24:26;96040.69;;;5.19;75.99
11124;BME280;5616;42.692;23.312;2023-01-25T11:27:12;96039.41;;;5.13;77.38
11124;BME280;5616;42.692;23.312;2023-01-25T11:29:39;96037.91;;;5.11;77.32
11124;BME280;5616;42.692;23.312;2023-01-25T11:32:15;96030.34;;;5.09;77.31
11124;BME280;5616;42.692;23.312;2023-01-25T11:34:46;96026.00;;;5.21;77.93
11124;BME280;5616;42.692;23.312;2023-01-25T11:37:33;96032.41;;;5.15;75.24
11124;BME280;5616;42.692;23.312;2023-01-25T11:40:11;96019.28;;;4.88;77.80
11124;BME280;5616;42.692;23.312;2023-01-25T11:42:44;96023.72;;;5.07;77.03
11124;BME280;5616;42.692;23.312;2023-01-25T11:45:45;96014.69;;;5.03;76.21
11124;BME280;5616;42.692;23.312;2023-01-25T11:48:44;96003.25;;;4.54;77.40
11124;BME280;5616;42.692;23.312;2023-01-25T11:51:20;96003.09;;;4.87;79.67
11124;BME280;5616;42.692;23.312;2023-01-25T11:53:58;95997.13;;;4.77;76.29
11124;BME280;5616;42.692;23.312;2023-01-25T11:56:40;95991.28;;;4.86;76.30
11124;BME280;5616;42.692;23.312;2023-01-25T11:59:24;95983.03;;;4.51;76.81
11124;BME280;5616;42.692;23.312;2023-01-25T12:02:06;95986.19;;;4.75;77.71
11124;BME280;5616;42.692;23.312;2023-01-25T12:04:51;95993.06;;;4.43;79.00
11124;BME280;5616;42.692;23.312;2023-01-25T12:07:33;95992.75;;;4.68;77.00
11124;BME280;5616;42.692;23.312;2023-01-25T12:10:18;95989.94;;;4.71;76.33
11124;BME280;5616;42.692;23.312;2023-01-25T12:12:52;95983.97;;;4.50;78.53
11124;BME280;5616;42.692;23.312;2023-01-25T12:15:33;95986.47;;;4.61;77.99
11124;BME280;5616;42.692;23.312;2023-01-25T12:21:04;95972.38;;;4.35;78.48
11124;BME280;5616;42.692;23.312;2023-01-25T12:23:42;95969.81;;;4.46;76.87
11124;BME280;5616;42.692;23.312;2023-01-25T12:26:22;95967.44;;;4.54;77.54
11124;BME280;5616;42.692;23.312;2023-01-25T12:28:58;95963.31;;;4.42;77.92
11124;BME280;5616;42.692;23.312;2023-01-25T12:31:36;95963.84;;;4.14;78.87
11124;BME280;5616;42.692;23.312;2023-01-25T12:34:09;95954.56;;;4.24;80.85
11124;BME280;5616;42.692;23.312;2023-01-25T12:36:42;95959.94;;;4.42;78.10
11124;BME280;5616;42.692;23.312;2023-01-25T12:39:13;95949.94;;;4.50;77.79
11124;BME280;5616;42.692;23.312;2023-01-25T12:41:46;95952.28;;;4.42;78.42
11124;BME280;5616;42.692;23.312;2023-01-25T12:44:18;95957.16;;;4.45;78.23
11124;BME280;5616;42.692;23.312;2023-01-25T12:46:50;95959.91;;;4.53;77.59
11124;BME280;5616;42.692;23.312;2023-01-25T12:49:24;95953.31;;;4.71;77.78
11124;BME280;5616;42.692;23.312;2023-01-25T12:51:55;95944.00;;;4.49;78.49
11124;BME280;5616;42.692;23.312;2023-01-25T12:54:29;95951.59;;;4.71;76.53
11124;BME280;5616;42.692;23.312;2023-01-25T12:57:05;95944.63;;;4.62;76.30
11124;BME280;5616;42.692;23.312;2023-01-25T12:59:41;95941.16;;;4.63;76.23
11124;BME280;5616;42.692;23.312;2023-01-25T13:02:36;95943.19;;;4.69;77.66
11124;BME280;5616;42.692;23.312;2023-01-25T13:05:17;95938.28;;;4.77;76.67
11124;BME280;5616;42.692;23.312;2023-01-25T13:07:50;95934.47;;;4.72;76.13
11124;BME280;5616;42.692;23.312;2023-01-25T13:10:25;95928.41;;;4.73;75.83
11124;BME280;5616;42.692;23.312;2023-01-25T13:12:57;95926.34;;;4.67;75.74
11124;BME280;5616;42.692;23.312;2023-01-25T13:15:35;95927.41;;;4.64;75.74
11124;BME280;5616;42.692;23.312;2023-01-25T13:18:34;95924.34;;;4.50;75.91
11124;BME280;5616;42.692;23.312;2023-01-25T13:21:02;95930.13;;;4.31;77.74
11124;BME280;5616;42.692;23.312;2023-01-25T13:23:32;95919.44;;;4.58;77.12
11124;BME280;5616;42.692;23.312;2023-01-25T13:35:37;95916.75;;;4.80;77.51
11124;BME280;5616;42.692;23.312;2023-01-25T13:41:04;95923.59;;;4.59;77.30
11124;BME280;5616;42.692;23.312;2023-01-25T13:43:35;95927.22;;;4.56;77.40
11124;BME280;5616;42.692;23.312;2023-01-25T13:46:04;95919.19;;;4.61;76.87
11124;BME280;5616;42.692;23.312;2023-01-25T13:48:33;95929.97;;;4.32;78.57